Time;durP1;ratioP1;P1;durP2;ratioP2;P2;SDS_P1;SDS_P2;PMS_P1;PMS_P2;Temp;Humidity;BMP_temperature;BMP_pressure;BME280_temperature;BME280_humidity;BME280_pressure;Samples;Min_cycle;Max_cycle;Signal;HPM_P1;HPM_P2
2022/01/07 00:01:08;;;;;;;51.23;25.30;;;;;;;0.82;95.27;101636.44;5032518;28;20548;-71
2022/01/07 00:03:33;;;;;;;61.30;24.00;;;;;;;0.79;95.22;101645.44;5047721;28;20333;-71
2022/01/07 00:06:00;;;;;;;58.47;24.70;;;;;;;0.79;94.91;101638.75;5032357;28;20202;-71
2022/01/07 00:08:27;;;;;;;58.17;26.60;;;;;;;0.79;95.13;101626.16;5032081;28;20183;-71
2022/01/07 00:10:52;;;;;;;60.67;25.40;;;;;;;0.82;94.99;101625.50;5032885;28;20237;-71
2022/01/07 00:13:17;;;;;;;60.83;25.23;;;;;;;0.79;95.37;101620.22;5047621;28;20213;-71
2022/01/07 00:15:44;;;;;;;53.57;25.10;;;;;;;0.77;95.33;101621.78;5032275;28;20202;-71
2022/01/07 00:18:09;;;;;;;54.37;24.80;;;;;;;0.79;95.30;101628.69;5032018;28;20667;-71
2022/01/07 00:20:37;;;;;;;59.03;26.73;;;;;;;0.80;95.13;101619.44;5032247;28;20244;-71
2022/01/07 00:23:02;;;;;;;58.53;26.20;;;;;;;0.81;95.12;101623.72;5046291;28;20277;-71
2022/01/07 00:25:28;;;;;;;56.17;25.87;;;;;;;0.80;94.95;101621.97;5031880;28;20694;-71
2022/01/07 00:27:53;;;;;;;54.03;23.87;;;;;;;0.79;95.89;101612.66;5032671;28;20552;-71
2022/01/07 00:30:20;;;;;;;58.50;25.40;;;;;;;0.80;95.62;101611.91;5032014;28;20174;-71
2022/01/07 00:32:45;;;;;;;50.97;24.67;;;;;;;0.86;94.84;101614.88;5043569;28;20178;-71
2022/01/07 00:35:12;;;;;;;58.23;25.33;;;;;;;0.81;95.94;101619.56;5051657;28;20639;-71
2022/01/07 00:37:38;;;;;;;56.87;24.83;;;;;;;0.85;95.51;101605.53;5051577;28;20210;-71
2022/01/07 00:40:07;;;;;;;55.10;24.43;;;;;;;0.86;95.75;101607.31;5051586;28;20666;-71
2022/01/07 00:42:33;;;;;;;54.00;24.33;;;;;;;0.88;95.00;101599.06;5051720;28;20720;-71
2022/01/07 00:44:58;;;;;;;57.73;25.30;;;;;;;0.90;94.91;101600.03;5050360;28;20194;-71
2022/01/07 00:47:24;;;;;;;54.73;23.60;;;;;;;0.94;95.94;101596.09;5051753;28;20231;-71
2022/01/07 00:49:50;;;;;;;55.27;23.83;;;;;;;0.91;95.09;101589.19;5051447;28;20186;-70
2022/01/07 00:52:16;;;;;;;55.07;23.50;;;;;;;0.94;95.21;101591.03;5051456;28;20190;-70
2022/01/07 00:54:41;;;;;;;48.07;23.13;;;;;;;0.94;95.21;101574.28;5051504;28;20181;-70
2022/01/07 00:57:06;;;;;;;49.43;24.17;;;;;;;0.94;95.53;101580.97;5051383;28;20197;-70
2022/01/07 00:59:32;;;;;;;54.37;22.33;;;;;;;0.93;95.53;101572.53;5050986;28;20233;-70
2022/01/07 01:01:57;;;;;;;56.30;23.50;;;;;;;0.94;95.18;101568.34;5049982;28;20259;-71
2022/01/07 01:04:22;;;;;;;54.00;22.37;;;;;;;0.94;94.77;101566.72;5051377;28;20723;-71
2022/01/07 01:06:48;;;;;;;50.73;23.00;;;;;;;0.98;95.31;101567.81;5051072;28;20248;-71
2022/01/07 01:09:13;;;;;;;50.97;22.57;;;;;;;0.97;95.26;101568.56;5033132;28;20261;-71
2022/01/07 01:11:39;;;;;;;51.53;23.17;;;;;;;0.96;95.48;101556.75;5049820;28;20687;-71
2022/01/07 01:14:05;;;;;;;55.03;25.30;;;;;;;0.96;95.69;101552.56;5051118;28;20188;-71
2022/01/07 01:16:31;;;;;;;48.70;21.33;;;;;;;0.97;95.40;101556.88;5050958;28;20296;-71
2022/01/07 01:18:57;;;;;;;51.83;22.77;;;;;;;0.96;94.73;101547.53;5050021;28;20237;-70
2022/01/07 01:21:22;;;;;;;48.83;21.70;;;;;;;0.99;94.38;101540.19;5050821;28;20797;-71
2022/01/07 01:23:50;;;;;;;46.47;21.80;;;;;;;1.02;94.54;101537.00;5050823;28;20178;-71
2022/01/07 01:26:18;;;;;;;52.83;21.87;;;;;;;1.00;95.28;101541.06;5049338;28;20213;-70
2022/01/07 01:28:44;;;;;;;43.93;20.63;;;;;;;1.04;94.58;101531.28;5050515;28;20812;-71
2022/01/07 01:31:09;;;;;;;48.97;21.90;;;;;;;1.02;94.93;101529.44;5048481;28;20256;-70
2022/01/07 01:33:35;;;;;;;42.50;19.53;;;;;;;1.05;94.96;101527.97;5047840;28;20260;-71
2022/01/07 01:36:00;;;;;;;48.33;21.37;;;;;;;1.07;94.45;101523.06;5036871;28;20222;-70
2022/01/07 01:38:27;;;;;;;45.53;21.20;;;;;;;1.04;93.96;101520.31;5045716;28;20264;-72
2022/01/07 01:40:53;;;;;;;41.50;20.33;;;;;;;1.06;94.33;101516.28;5030622;28;20321;-71
2022/01/07 01:43:19;;;;;;;36.60;18.50;;;;;;;1.08;94.26;101514.72;5030558;28;20217;-71
2022/01/07 01:45:44;;;;;;;46.30;19.57;;;;;;;1.08;94.19;101514.72;5030431;28;20293;-71
2022/01/07 01:48:09;;;;;;;39.20;18.23;;;;;;;1.08;93.54;101508.03;5030270;28;20675;-71
2022/01/07 01:50:35;;;;;;;43.07;19.03;;;;;;;1.05;93.66;101500.25;5030492;28;20296;-71
2022/01/07 01:53:00;;;;;;;42.13;18.17;;;;;;;1.09;94.23;101504.72;5031125;28;20273;-71
2022/01/07 01:55:27;;;;;;;44.83;19.53;;;;;;;1.12;94.48;101499.03;5029161;28;20202;-70
2022/01/07 01:57:53;;;;;;;37.30;18.07;;;;;;;1.14;94.05;101487.41;5030364;28;20314;-71
2022/01/07 02:00:24;;;;;;;36.97;18.30;;;;;;;1.16;93.37;101481.69;5029271;28;20269;-71
2022/01/07 02:02:50;;;;;;;43.43;18.03;;;;;;;1.19;93.59;101474.31;5030389;28;20186;-71
2022/01/07 02:05:15;;;;;;;46.80;17.93;;;;;;;1.18;93.03;101477.63;5030231;28;20190;-70
2022/01/07 02:07:41;;;;;;;36.33;17.80;;;;;;;1.21;93.72;101472.78;5030263;28;20191;-70
2022/01/07 02:10:11;;;;;;;37.47;16.83;;;;;;;1.24;93.30;101469.59;5056009;28;20639;-70
2022/01/07 02:12:37;;;;;;;41.73;16.20;;;;;;;1.24;92.96;101455.31;5030016;28;20667;-71
2022/01/07 02:15:02;;;;;;;33.50;15.30;;;;;;;1.28;93.31;101456.41;5030010;28;20182;-71
2022/01/07 02:17:27;;;;;;;40.90;17.17;;;;;;;1.27;92.89;101455.53;5029812;28;20234;-70
2022/01/07 02:19:54;;;;;;;32.77;15.27;;;;;;;1.30;92.94;101449.81;5029845;28;20270;-71
2022/01/07 02:22:20;;;;;;;34.40;15.27;;;;;;;1.28;92.67;101444.66;5029971;28;20201;-71
2022/01/07 02:24:47;;;;;;;36.50;14.80;;;;;;;1.31;92.74;101451.56;5029728;28;20225;-71
2022/01/07 02:27:13;;;;;;;33.47;13.63;;;;;;;1.30;93.25;101450.69;5044430;28;20217;-71
2022/01/07 02:29:39;;;;;;;34.27;14.87;;;;;;;1.32;92.47;101443.25;5049428;28;20186;-71
2022/01/07 02:32:06;;;;;;;39.90;14.80;;;;;;;1.32;92.60;101436.53;5045951;28;20275;-71
2022/01/07 02:34:31;;;;;;;31.40;14.90;;;;;;;1.39;92.08;101430.22;5049420;28;20189;-70
2022/01/07 02:36:56;;;;;;;33.67;14.37;;;;;;;1.39;91.80;101418.50;5049516;28;20697;-71
2022/01/07 02:39:22;;;;;;;33.30;14.37;;;;;;;1.36;91.88;101424.97;5049433;28;20643;-70
2022/01/07 02:41:47;;;;;;;33.30;12.90;;;;;;;1.36;91.54;101418.31;5049546;28;20197;-70
2022/01/07 02:44:13;;;;;;;30.40;13.23;;;;;;;1.37;91.13;101414.13;5047982;28;20190;-71
2022/01/07 02:46:39;;;;;;;27.17;12.47;;;;;;;1.38;91.37;101404.13;5048619;28;20301;-70
2022/01/07 02:49:12;;;;;;;27.63;12.60;;;;;;;1.41;91.31;101408.50;5049299;28;20580;-70
2022/01/07 02:51:38;;;;;;;29.63;12.97;;;;;;;1.41;90.83;101413.53;5049469;28;20189;-71
2022/01/07 02:54:05;;;;;;;30.10;13.67;;;;;;;1.43;90.83;101414.53;5048143;28;20232;-71
2022/01/07 02:56:30;;;;;;;30.53;11.70;;;;;;;1.46;90.35;101402.97;5049332;28;20313;-70
2022/01/07 02:58:55;;;;;;;28.37;12.10;;;;;;;1.48;91.28;101395.50;5049127;28;20281;-71
2022/01/07 03:01:21;;;;;;;27.63;11.17;;;;;;;1.48;90.12;101395.50;5048462;28;20720;-70
2022/01/07 03:03:46;;;;;;;27.30;11.97;;;;;;;1.49;90.62;101387.16;5049332;28;20674;-70
2022/01/07 03:06:12;;;;;;;30.13;12.20;;;;;;;1.53;90.41;101384.94;5049303;28;20209;-70
2022/01/07 03:08:37;;;;;;;26.87;10.43;;;;;;;1.52;89.66;101379.78;5049173;28;20192;-71
2022/01/07 03:11:02;;;;;;;30.47;10.50;;;;;;;1.50;90.32;101376.28;5049302;28;20205;-71
2022/01/07 03:13:28;;;;;;;27.70;9.97;;;;;;;1.55;90.25;101374.91;5049289;28;20181;-70
2022/01/07 03:15:53;;;;;;;25.37;11.50;;;;;;;1.55;89.26;101375.81;5048002;28;20576;-70
2022/01/07 03:18:18;;;;;;;23.93;9.97;;;;;;;1.59;89.05;101374.34;5048395;28;20685;-70
2022/01/07 03:20:44;;;;;;;22.40;9.77;;;;;;;1.57;89.87;101365.81;5049379;28;20206;-70
2022/01/07 03:23:12;;;;;;;26.20;10.10;;;;;;;1.56;89.87;101364.94;5049300;28;20205;-71
2022/01/07 03:25:39;;;;;;;29.07;10.33;;;;;;;1.59;89.06;101361.72;5049093;28;20247;-71
2022/01/07 03:28:05;;;;;;;24.10;9.80;;;;;;;1.60;89.17;101355.94;5048858;28;20190;-71
2022/01/07 03:30:31;;;;;;;21.90;9.67;;;;;;;1.58;89.30;101344.84;5048959;28;20610;-70
2022/01/07 03:32:57;;;;;;;20.20;8.37;;;;;;;1.60;89.73;101348.38;5045328;28;20221;-71
2022/01/07 03:35:22;;;;;;;21.17;8.17;;;;;;;1.63;89.45;101346.00;5048176;28;20568;-71
2022/01/07 03:37:49;;;;;;;19.60;9.63;;;;;;;1.61;89.38;101328.25;5046147;28;20263;-71
2022/01/07 03:40:16;;;;;;;24.83;8.77;;;;;;;1.63;89.44;101328.34;5048707;28;20206;-70
2022/01/07 03:42:42;;;;;;;22.60;9.17;;;;;;;1.64;88.21;101320.88;5048949;28;20515;-70
2022/01/07 03:45:08;;;;;;;21.00;8.93;;;;;;;1.65;89.04;101319.25;5048672;28;20192;-70
2022/01/07 03:47:34;;;;;;;17.73;8.47;;;;;;;1.63;89.10;101315.72;5048899;28;20182;-71
2022/01/07 03:49:59;;;;;;;20.97;8.50;;;;;;;1.64;88.42;101315.84;5048742;28;20193;-71
2022/01/07 03:52:25;;;;;;;17.50;8.10;;;;;;;1.66;88.24;101315.94;5032099;28;20206;-71
2022/01/07 03:54:51;;;;;;;16.47;7.27;;;;;;;1.65;87.61;101314.19;5029083;28;20185;-71
2022/01/07 03:57:19;;;;;;;19.63;7.37;;;;;;;1.68;88.45;101310.19;5046530;28;20217;-71
2022/01/07 03:59:45;;;;;;;20.37;8.13;;;;;;;1.66;88.05;101295.75;5052164;28;20209;-71
2022/01/07 04:02:10;;;;;;;20.27;7.57;;;;;;;1.68;88.50;101302.63;5051276;28;20270;-70
2022/01/07 04:04:36;;;;;;;22.07;7.53;;;;;;;1.68;87.51;101302.63;5052496;28;20182;-71
2022/01/07 04:07:01;;;;;;;19.70;7.07;;;;;;;1.69;88.36;101295.94;5052311;28;20276;-70
2022/01/07 04:09:26;;;;;;;15.53;6.77;;;;;;;1.68;88.08;101295.06;5035201;28;20174;-70
2022/01/07 04:11:52;;;;;;;21.90;7.10;;;;;;;1.69;87.97;101298.47;5032355;28;20553;-71
2022/01/07 04:14:17;;;;;;;16.57;7.17;;;;;;;1.70;87.16;101292.63;5032310;28;20685;-70
2022/01/07 04:16:43;;;;;;;12.40;6.60;;;;;;;1.70;87.51;101295.16;5032285;28;20234;-70
2022/01/07 04:19:08;;;;;;;17.70;6.57;;;;;;;1.70;87.32;101295.16;5031971;28;20215;-71
2022/01/07 04:21:33;;;;;;;17.63;6.80;;;;;;;1.71;87.68;101299.41;5032308;28;20174;-70
2022/01/07 04:23:58;;;;;;;15.47;7.17;;;;;;;1.69;88.02;101284.19;5032283;28;20222;-70
2022/01/07 04:26:24;;;;;;;16.30;6.80;;;;;;;1.71;88.02;101289.31;5032669;28;20589;-70
2022/01/07 04:28:49;;;;;;;18.03;6.83;;;;;;;1.71;87.83;101282.63;5031956;28;20883;-70
2022/01/07 04:31:15;;;;;;;15.03;6.63;;;;;;;1.78;86.48;101282.22;5032154;28;20195;-70
2022/01/07 04:33:40;;;;;;;16.80;6.50;;;;;;;1.77;87.21;101282.13;5043292;28;20619;-70
2022/01/07 04:36:05;;;;;;;18.57;6.60;;;;;;;1.80;86.47;101284.84;5052011;28;20662;-70
2022/01/07 04:38:31;;;;;;;15.30;6.77;;;;;;;1.77;87.47;101280.47;5051949;28;20209;-71
2022/01/07 04:40:57;;;;;;;16.70;6.23;;;;;;;1.81;86.48;101282.41;5052102;28;20573;-70
2022/01/07 04:43:22;;;;;;;14.90;5.97;;;;;;;1.82;87.42;101278.22;5034360;28;20218;-70
2022/01/07 04:45:48;;;;;;;14.83;5.70;;;;;;;1.82;86.63;101278.22;5030631;28;20226;-71
2022/01/07 04:48:13;;;;;;;17.20;6.20;;;;;;;1.82;86.69;101266.47;5031545;28;20651;-71
2022/01/07 04:50:39;;;;;;;17.03;6.40;;;;;;;1.87;87.13;101269.28;5031835;28;20186;-70
2022/01/07 04:53:05;;;;;;;17.57;6.10;;;;;;;1.87;86.94;101267.63;5031642;28;20240;-71
2022/01/07 04:55:37;;;;;;;14.53;5.57;;;;;;;1.89;86.64;101265.19;5044235;28;20928;-71
2022/01/07 04:58:07;;;;;;;19.20;6.07;;;;;;;1.87;86.29;101260.06;5045849;28;20228;-71
2022/01/07 05:00:33;;;;;;;14.23;6.03;;;;;;;1.85;86.76;101260.75;5049968;28;20193;-71
2022/01/07 05:02:59;;;;;;;17.17;6.60;;;;;;;1.85;86.91;101266.69;5051181;28;20241;-70
2022/01/07 05:05:24;;;;;;;13.87;5.80;;;;;;;1.85;86.24;101260.75;5046120;28;20288;-71
2022/01/07 05:07:50;;;;;;;14.73;6.37;;;;;;;1.85;86.60;101260.75;5048889;28;20727;-71
2022/01/07 05:10:15;;;;;;;17.33;6.70;;;;;;;1.86;86.61;101252.38;5045830;28;20213;-70
2022/01/07 05:12:42;;;;;;;15.97;6.30;;;;;;;1.86;86.75;101247.34;5049807;28;20186;-71
2022/01/07 05:15:09;;;;;;;14.10;6.20;;;;;;;1.84;87.33;101234.63;5048574;28;20189;-71
2022/01/07 05:17:34;;;;;;;18.43;6.33;;;;;;;1.82;88.42;101246.28;5047511;28;20638;-71
2022/01/07 05:20:00;;;;;;;13.90;6.27;;;;;;;1.82;88.82;101237.84;5049921;28;20202;-70
2022/01/07 05:22:25;;;;;;;16.80;6.13;;;;;;;1.78;89.05;101235.91;5047869;28;20242;-71
2022/01/07 05:24:50;;;;;;;19.50;6.63;;;;;;;1.79;89.94;101225.91;5048322;28;20196;-71
2022/01/07 05:27:16;;;;;;;16.60;6.40;;;;;;;1.76;90.21;101224.84;5048695;28;20210;-71
2022/01/07 05:29:41;;;;;;;18.40;7.13;;;;;;;1.72;90.35;101222.94;5049805;28;20173;-71
2022/01/07 05:32:08;;;;;;;14.27;6.63;;;;;;;1.70;90.31;101215.25;5045550;28;20198;-71
2022/01/07 05:34:33;;;;;;;13.00;6.47;;;;;;;1.70;90.99;101211.88;5049063;28;20194;-71
2022/01/07 05:36:59;;;;;;;20.73;7.57;;;;;;;1.68;90.61;101199.16;5041486;28;20240;-71
2022/01/07 05:39:24;;;;;;;16.83;7.13;;;;;;;1.66;90.31;101210.81;5040127;28;20301;-70
2022/01/07 05:41:50;;;;;;;11.47;6.00;;;;;;;1.68;91.22;101200.81;5049371;28;20185;-71
2022/01/07 05:44:16;;;;;;;18.67;7.80;;;;;;;1.68;90.62;101188.19;5043509;28;20189;-71
2022/01/07 05:46:41;;;;;;;18.30;7.57;;;;;;;1.70;90.01;101184.13;5048605;28;20239;-71
2022/01/07 05:49:07;;;;;;;18.20;6.90;;;;;;;1.73;90.60;101185.16;5049552;28;20190;-71
2022/01/07 05:51:32;;;;;;;14.87;6.70;;;;;;;1.69;90.07;101183.25;5046191;28;20276;-71
2022/01/07 05:53:59;;;;;;;17.50;6.93;;;;;;;1.71;90.24;101180.81;5049226;28;20642;-71
2022/01/07 05:56:24;;;;;;;14.67;6.53;;;;;;;1.71;90.72;101183.34;5046060;28;20253;-70
2022/01/07 05:58:49;;;;;;;16.27;6.97;;;;;;;1.66;91.46;101180.53;5048893;28;20247;-70
2022/01/07 06:01:15;;;;;;;13.17;6.70;;;;;;;1.63;92.00;101167.75;5048945;28;20273;-70
2022/01/07 06:03:41;;;;;;;21.03;7.23;;;;;;;1.67;91.13;101163.75;5050024;28;20647;-70
2022/01/07 06:06:06;;;;;;;16.37;6.97;;;;;;;1.65;92.04;101160.28;5047881;28;20662;-70
2022/01/07 06:08:32;;;;;;;17.37;7.47;;;;;;;1.66;91.86;101162.00;5042738;28;20228;-71
2022/01/07 06:10:57;;;;;;;15.33;6.90;;;;;;;1.65;91.90;101150.19;5046492;28;20655;-70
2022/01/07 06:13:22;;;;;;;17.57;6.60;;;;;;;1.65;92.01;101152.72;5048110;28;20181;-70
2022/01/07 06:15:48;;;;;;;19.00;7.17;;;;;;;1.65;91.87;101140.94;5047564;28;20224;-71
2022/01/07 06:18:13;;;;;;;17.10;6.77;;;;;;;1.62;91.94;101150.88;5049447;28;20209;-71
2022/01/07 06:20:39;;;;;;;18.13;7.67;;;;;;;1.64;92.67;101145.91;5048270;28;20661;-70
2022/01/07 06:23:05;;;;;;;15.87;8.00;;;;;;;1.65;92.00;101143.47;5049219;28;20182;-71
2022/01/07 06:25:30;;;;;;;17.47;7.13;;;;;;;1.66;92.82;101134.25;5043324;28;20304;-71
2022/01/07 06:27:55;;;;;;;18.93;8.27;;;;;;;1.65;91.97;101132.53;5048333;28;20212;-71
2022/01/07 06:30:21;;;;;;;14.10;7.43;;;;;;;1.64;93.12;101124.06;5044013;28;20297;-71
2022/01/07 06:32:46;;;;;;;18.97;7.37;;;;;;;1.61;92.41;101128.94;5049476;28;20239;-71
2022/01/07 06:35:12;;;;;;;15.63;7.23;;;;;;;1.58;93.10;101123.72;5043457;28;20193;-70
2022/01/07 06:37:38;;;;;;;19.07;7.50;;;;;;;1.58;93.72;101120.31;5041015;28;20195;-70
2022/01/07 06:40:05;;;;;;;18.27;7.40;;;;;;;1.56;93.13;101120.22;5044406;28;20626;-70
2022/01/07 06:42:31;;;;;;;16.23;7.43;;;;;;;1.57;93.16;101121.97;5047604;28;20193;-70
2022/01/07 06:44:57;;;;;;;19.83;8.00;;;;;;;1.55;93.63;101118.47;5042193;28;20254;-70
2022/01/07 06:47:23;;;;;;;16.37;7.80;;;;;;;1.57;93.15;101111.91;5041599;28;20213;-70
2022/01/07 06:49:48;;;;;;;17.20;7.53;;;;;;;1.59;93.30;101107.78;5046701;28;20666;-70
2022/01/07 06:52:13;;;;;;;20.53;8.77;;;;;;;1.60;94.00;101108.69;5041923;28;20557;-70
2022/01/07 06:54:39;;;;;;;19.37;7.30;;;;;;;1.61;93.38;101111.25;5045920;28;20200;-70
2022/01/07 06:57:04;;;;;;;18.20;7.57;;;;;;;1.61;92.86;101107.88;5042829;28;20210;-71
2022/01/07 06:59:30;;;;;;;19.77;7.70;;;;;;;1.60;93.58;101107.00;5044254;28;20217;-71
2022/01/07 07:01:55;;;;;;;17.50;7.13;;;;;;;1.61;93.40;101103.69;5048648;28;20189;-70
2022/01/07 07:04:20;;;;;;;15.60;7.33;;;;;;;1.61;93.16;101100.31;5049290;28;20242;-71
2022/01/07 07:06:46;;;;;;;16.87;7.33;;;;;;;1.60;93.96;101098.59;5045478;28;20276;-71
2022/01/07 07:09:11;;;;;;;27.33;8.93;;;;;;;1.60;93.60;101099.44;5047238;28;20192;-71
2022/01/07 07:11:37;;;;;;;16.77;7.83;;;;;;;1.63;93.77;101097.09;5042557;28;20202;-71
2022/01/07 07:14:03;;;;;;;17.20;7.17;;;;;;;1.64;93.00;101096.31;5049292;28;20201;-71
2022/01/07 07:16:28;;;;;;;21.10;7.60;;;;;;;1.64;93.12;101092.91;5042664;28;20235;-71
2022/01/07 07:18:54;;;;;;;22.03;7.63;;;;;;;1.57;93.66;101093.34;5038367;28;20202;-71
2022/01/07 07:21:19;;;;;;;17.53;8.13;;;;;;;1.57;94.29;101091.72;5053016;28;20659;-70
2022/01/07 07:23:44;;;;;;;15.37;7.50;;;;;;;1.60;93.28;101096.91;5046132;28;20185;-71
2022/01/07 07:26:10;;;;;;;14.70;7.23;;;;;;;1.61;93.57;101102.84;5049963;28;20252;-71
2022/01/07 07:28:35;;;;;;;18.17;7.60;;;;;;;1.58;94.03;101097.59;5041327;28;20647;-71
2022/01/07 07:31:01;;;;;;;14.30;7.37;;;;;;;1.58;94.76;101100.13;5043334;28;20182;-71
2022/01/07 07:33:29;;;;;;;14.53;7.83;;;;;;;1.57;94.90;101094.22;5050399;28;20198;-71
2022/01/07 07:38:42;;;;;;;21.97;8.50;;;;;;;1.57;94.16;101094.22;5052830;28;20204;-71
2022/01/07 07:41:08;;;;;;;14.47;7.27;;;;;;;1.59;94.53;101097.69;5052983;28;20298;-71
2022/01/07 07:43:34;;;;;;;16.30;7.93;;;;;;;1.59;94.30;101099.34;5052942;28;20194;-71
2022/01/07 07:46:00;;;;;;;20.37;8.23;;;;;;;1.58;94.77;101101.00;5052757;28;20572;-71
2022/01/07 07:48:26;;;;;;;17.93;8.17;;;;;;;1.52;94.21;101093.06;5038772;28;20189;-71
2022/01/07 07:50:51;;;;;;;18.87;8.87;;;;;;;1.46;95.56;101097.75;5033147;28;20816;-71
2022/01/07 07:53:16;;;;;;;16.87;8.23;;;;;;;1.43;94.72;101092.56;5072878;28;20220;-70
2022/01/07 07:55:43;;;;;;;16.30;8.90;;;;;;;1.46;94.63;101096.91;5072579;28;20361;-71
2022/01/07 07:58:09;;;;;;;19.97;9.03;;;;;;;1.44;95.31;101093.41;5072295;28;20688;-71
2022/01/07 08:00:34;;;;;;;19.40;9.07;;;;;;;1.45;94.79;101096.03;5072492;28;20182;-71
2022/01/07 08:03:00;;;;;;;19.23;8.83;;;;;;;1.41;95.30;101091.56;5072571;28;20882;-71
2022/01/07 08:05:26;;;;;;;14.93;8.50;;;;;;;1.43;95.92;101097.59;5071077;28;20177;-71
2022/01/07 08:07:51;;;;;;;17.33;9.23;;;;;;;1.44;95.61;101083.31;5032291;28;20289;-71
2022/01/07 08:10:22;;;;;;;18.97;9.40;;;;;;;1.48;95.05;101087.75;5032565;28;20186;-71
2022/01/07 08:12:54;;;;;;;21.47;8.60;;;;;;;1.47;95.96;101083.50;5032699;28;20167;-70
2022/01/07 08:18:04;;;;;;;21.53;9.57;;;;;;;1.49;95.27;101080.28;5032091;28;20214;-70
2022/01/07 08:20:29;;;;;;;18.60;9.50;;;;;;;1.50;96.05;101071.94;5030869;28;20253;-70
2022/01/07 08:22:56;;;;;;;15.23;8.97;;;;;;;1.53;95.24;101076.28;5031454;28;20198;-70
2022/01/07 08:25:23;;;;;;;19.33;9.77;;;;;;;1.55;96.47;101072.19;5064461;28;20201;-70
2022/01/07 08:27:49;;;;;;;20.27;9.30;;;;;;;1.56;95.95;101073.97;5051973;28;20297;-70
2022/01/07 08:30:22;;;;;;;20.10;9.40;;;;;;;1.55;95.48;101064.63;5051901;28;20224;-70
2022/01/07 08:35:36;;;;;;;19.57;9.30;;;;;;;1.58;95.99;101060.66;5051823;28;20213;-70
2022/01/07 08:38:01;;;;;;;16.13;9.03;;;;;;;1.62;95.86;101060.03;5051580;28;20263;-70
2022/01/07 08:40:27;;;;;;;13.73;8.67;;;;;;;1.63;95.82;101063.41;5041851;28;20665;-70
2022/01/07 08:42:52;;;;;;;15.57;8.73;;;;;;;1.65;95.29;101065.25;5031900;28;20183;-71
2022/01/07 08:45:17;;;;;;;14.70;8.53;;;;;;;1.66;95.67;101069.50;5029299;28;20265;-70
2022/01/07 08:47:43;;;;;;;16.57;8.70;;;;;;;1.68;95.12;101075.53;5043757;28;20624;-70
2022/01/07 08:50:08;;;;;;;15.67;8.70;;;;;;;1.69;95.78;101072.22;5051092;28;20571;-70
2022/01/07 08:52:34;;;;;;;15.13;9.07;;;;;;;1.70;95.63;101066.38;5050052;28;20607;-70
2022/01/07 08:54:59;;;;;;;16.17;9.00;;;;;;;1.73;95.32;101066.56;5051426;28;20192;-70
2022/01/07 08:57:25;;;;;;;18.97;9.73;;;;;;;1.73;96.26;101064.03;5042633;28;20256;-69
2022/01/07 08:59:51;;;;;;;19.87;9.73;;;;;;;1.72;96.00;101063.94;5031200;28;20266;-69
2022/01/07 09:02:17;;;;;;;17.00;8.77;;;;;;;1.69;96.02;101069.69;5029390;28;20309;-71
2022/01/07 09:04:42;;;;;;;18.07;10.10;;;;;;;1.72;96.33;101072.41;5041974;28;20269;-71
2022/01/07 09:07:08;;;;;;;15.03;9.30;;;;;;;1.69;96.30;101061.28;5049599;28;20661;-71
2022/01/07 09:09:33;;;;;;;17.20;9.40;;;;;;;1.72;95.46;101057.25;5049428;28;20194;-70
2022/01/07 09:11:58;;;;;;;19.57;9.87;;;;;;;1.74;95.78;101058.22;5033930;28;20662;-71
2022/01/07 09:14:24;;;;;;;13.47;8.70;;;;;;;1.76;95.88;101058.31;5031672;28;20194;-71
2022/01/07 09:16:49;;;;;;;15.80;9.13;;;;;;;1.81;96.18;101064.47;5031037;28;20202;-70
2022/01/07 09:19:14;;;;;;;15.73;9.20;;;;;;;1.81;95.32;101065.38;5035702;28;20581;-71
2022/01/07 09:21:40;;;;;;;16.20;9.67;;;;;;;1.80;95.99;101062.75;5050766;28;20643;-71
2022/01/07 09:24:05;;;;;;;16.23;9.40;;;;;;;1.81;95.32;101059.44;5049448;28;20218;-71
2022/01/07 09:26:30;;;;;;;13.40;9.17;;;;;;;1.81;96.04;101055.28;5044605;28;20816;-72
2022/01/07 09:28:56;;;;;;;18.70;9.77;;;;;;;1.84;95.31;101054.56;5050733;28;20273;-70
2022/01/07 09:31:21;;;;;;;15.83;9.20;;;;;;;1.83;95.55;101053.69;5041700;28;20198;-71
2022/01/07 09:33:46;;;;;;;19.17;10.63;;;;;;;1.85;95.46;101048.72;5029430;28;20190;-71
2022/01/07 09:36:12;;;;;;;18.70;11.17;;;;;;;1.82;96.16;101049.44;5049878;28;20205;-71
2022/01/07 09:38:37;;;;;;;15.93;9.00;;;;;;;1.86;95.88;101047.94;5050350;28;20286;-71
2022/01/07 09:41:02;;;;;;;15.27;9.67;;;;;;;1.84;96.07;101055.41;5048919;28;20205;-71
2022/01/07 09:43:28;;;;;;;15.90;8.93;;;;;;;1.86;95.91;101053.88;5048729;28;20649;-70
2022/01/07 09:45:53;;;;;;;11.50;9.13;;;;;;;1.85;95.86;101048.72;5050355;28;20212;-70
2022/01/07 09:48:18;;;;;;;14.33;9.17;;;;;;;1.79;95.64;101050.91;5042414;28;20195;-69
2022/01/07 09:50:45;;;;;;;14.90;8.77;;;;;;;1.80;95.80;101055.19;5030300;28;20848;-69
2022/01/07 09:53:12;;;;;;;17.60;8.93;;;;;;;1.80;95.51;101045.09;5030175;28;20194;-69
2022/01/07 09:55:39;;;;;;;12.27;8.87;;;;;;;1.81;95.67;101052.75;5029939;28;20283;-69
2022/01/07 09:58:05;;;;;;;15.87;10.03;;;;;;;1.74;96.13;101039.69;5043510;28;20212;-69
2022/01/07 10:00:39;;;;;;;14.67;10.00;;;;;;;1.73;96.47;101042.97;5050134;28;20190;-69
2022/01/07 10:03:11;;;;;;;12.20;8.73;;;;;;;1.74;96.37;101047.25;5050123;28;20240;-70
2022/01/07 10:05:41;;;;;;;14.03;9.60;;;;;;;1.72;95.35;101042.13;5049690;28;20214;-70
2022/01/07 10:08:23;;;;;;;11.50;8.67;;;;;;;1.75;95.76;101039.75;5048481;28;20599;-70
2022/01/07 10:11:08;;;;;;;15.60;10.37;;;;;;;1.69;96.42;101043.59;5050038;28;20194;-70
2022/01/07 10:13:33;;;;;;;13.73;9.30;;;;;;;1.77;95.44;101037.31;5049839;28;20319;-69
2022/01/07 10:16:15;;;;;;;15.07;9.10;;;;;;;1.71;96.33;101040.41;5049552;28;20300;-69
2022/01/07 10:18:41;;;;;;;16.77;10.13;;;;;;;1.75;96.66;101022.09;5049405;28;20342;-70
2022/01/07 10:21:08;;;;;;;16.10;9.50;;;;;;;1.75;96.22;101017.03;5049046;28;20208;-70
2022/01/07 10:23:34;;;;;;;14.33;10.10;;;;;;;1.80;96.31;101023.25;5036382;28;20277;-69
2022/01/07 10:25:59;;;;;;;14.90;9.90;;;;;;;1.83;96.40;101018.34;5030386;28;20371;-69
2022/01/07 10:28:30;;;;;;;13.00;9.30;;;;;;;1.83;95.81;101018.34;5029310;28;20221;-69
2022/01/07 10:30:56;;;;;;;12.40;9.30;;;;;;;1.86;95.99;101021.06;5029163;28;20577;-69
2022/01/07 10:33:24;;;;;;;14.37;9.40;;;;;;;1.92;96.17;101015.50;5029671;28;20182;-69
2022/01/07 10:35:53;;;;;;;13.93;9.67;;;;;;;1.94;95.52;101022.38;5029696;28;20203;-69
2022/01/07 10:38:24;;;;;;;16.03;9.67;;;;;;;1.98;96.47;101018.34;5030551;28;20204;-69
2022/01/07 10:40:52;;;;;;;15.13;10.03;;;;;;;2.01;96.20;101021.91;5032414;28;20206;-69
2022/01/07 10:43:24;;;;;;;18.20;10.57;;;;;;;2.02;96.47;101020.28;5049760;28;20189;-69
2022/01/07 10:45:52;;;;;;;15.90;10.70;;;;;;;2.06;96.29;101014.59;5048394;28;20670;-69
2022/01/07 10:48:20;;;;;;;14.83;10.33;;;;;;;2.08;95.74;101003.81;5049612;28;20549;-69
2022/01/07 10:50:51;;;;;;;12.97;9.63;;;;;;;2.14;96.67;101000.72;5049798;28;20300;-69
2022/01/07 10:53:24;;;;;;;17.43;10.40;;;;;;;2.16;95.92;101000.03;5044661;28;20182;-69
2022/01/07 10:56:06;;;;;;;13.10;10.23;;;;;;;2.17;96.39;100996.75;5029844;28;20216;-70
2022/01/07 10:58:46;;;;;;;14.93;10.97;;;;;;;2.19;96.27;101000.19;5029291;28;20332;-70
2022/01/07 11:01:20;;;;;;;17.13;11.23;;;;;;;2.20;96.17;100999.41;5029428;28;20340;-70
2022/01/07 11:03:47;;;;;;;16.10;11.10;;;;;;;2.21;96.04;100997.75;5029404;28;20190;-70
2022/01/07 11:06:12;;;;;;;17.83;11.27;;;;;;;2.26;96.30;100998.88;5030551;28;20213;-70
2022/01/07 11:08:39;;;;;;;13.33;10.23;;;;;;;2.25;96.51;100992.94;5032165;28;20182;-70
2022/01/07 11:11:05;;;;;;;20.87;12.33;;;;;;;2.25;96.78;100997.16;5032705;28;20186;-70
2022/01/07 11:13:32;;;;;;;15.40;11.23;;;;;;;2.28;95.99;100998.19;5033841;28;20213;-70
2022/01/07 11:15:58;;;;;;;17.80;11.53;;;;;;;2.30;96.27;101003.31;5033620;28;20202;-70
2022/01/07 11:18:23;;;;;;;15.87;10.77;;;;;;;2.31;96.78;101000.00;5033342;28;20206;-70
2022/01/07 11:20:48;;;;;;;17.03;11.47;;;;;;;2.32;96.02;101000.09;5034671;28;20206;-70
2022/01/07 11:23:14;;;;;;;15.07;11.13;;;;;;;2.32;96.36;101007.66;5034546;28;20190;-70
2022/01/07 11:25:39;;;;;;;19.23;10.77;;;;;;;2.35;96.65;100997.69;5033508;28;20267;-70